createdAt,value
2023-05-21T00:02:23.537Z,8.35
2023-05-21T00:04:51.952Z,7.90
2023-05-21T00:07:21.043Z,7.20
2023-05-21T00:09:48.763Z,6.95
2023-05-21T00:12:16.473Z,6.80
2023-05-21T00:14:44.245Z,9.05
2023-05-21T00:17:11.941Z,7.35
2023-05-21T00:19:39.881Z,7.70
2023-05-21T00:22:07.575Z,5.57
2023-05-21T00:24:36.628Z,6.25
2023-05-21T00:27:04.499Z,5.07
2023-05-21T00:29:32.186Z,9.05
2023-05-21T00:31:59.959Z,7.32
2023-05-21T00:34:27.647Z,7.90
2023-05-21T00:36:55.843Z,7.35
2023-05-21T00:39:23.555Z,8.07
2023-05-21T00:41:52.626Z,8.07
2023-05-21T00:44:20.582Z,10.13
2023-05-21T00:46:53.565Z,6.50
2023-05-21T00:49:22.415Z,7.47
2023-05-21T00:51:50.189Z,7.75
2023-05-21T00:54:17.871Z,9.02
2023-05-21T00:56:45.559Z,8.02
2023-05-21T00:59:14.825Z,6.75
2023-05-21T01:01:43.657Z,9.43
2023-05-21T01:04:11.482Z,5.88
2023-05-21T01:06:39.340Z,8.80
2023-05-21T01:09:07.336Z,6.43
2023-05-21T01:11:40.045Z,10.30
2023-05-21T01:14:09.455Z,7.13
2023-05-21T01:16:40.992Z,8.10
2023-05-21T01:19:11.715Z,7.55
2023-05-21T01:21:43.067Z,7.45
2023-05-21T01:24:12.210Z,8.88
2023-05-21T01:26:42.645Z,7.88
2023-05-21T01:29:13.172Z,7.70
2023-05-21T01:31:55.444Z,8.27
2023-05-21T01:34:28.000Z,8.43
2023-05-21T01:37:00.818Z,7.32
2023-05-21T01:39:33.663Z,6.95
2023-05-21T01:42:01.782Z,7.75
2023-05-21T01:44:29.750Z,8.10
2023-05-21T01:46:58.136Z,10.05
2023-05-21T01:49:26.046Z,8.50
2023-05-21T01:51:53.928Z,7.47
2023-05-21T01:54:22.007Z,7.32
2023-05-21T01:56:51.105Z,6.50
2023-05-21T01:59:20.242Z,6.93
2023-05-21T02:01:47.995Z,9.27
2023-05-21T02:04:15.736Z,7.70
2023-05-21T02:06:44.420Z,9.23
2023-05-21T02:09:12.082Z,8.45
2023-05-21T02:11:39.748Z,8.07
2023-05-21T02:14:10.373Z,10.98
2023-05-21T02:16:38.539Z,7.78
2023-05-21T02:19:06.757Z,11.68
2023-05-21T02:21:34.522Z,11.63
2023-05-21T02:24:02.269Z,10.63
2023-05-21T02:26:30.106Z,13.13
2023-05-21T02:28:58.102Z,10.40
2023-05-21T02:31:27.326Z,14.18
2023-05-21T02:33:55.021Z,10.52
2023-05-21T02:36:25.217Z,12.77
2023-05-21T02:38:53.151Z,9.77
2023-05-21T02:41:21.187Z,11.60
2023-05-21T02:43:48.917Z,10.65
2023-05-21T02:46:16.639Z,9.00
2023-05-21T02:48:45.794Z,10.45
2023-05-21T02:51:19.652Z,12.77
2023-05-21T02:53:47.340Z,10.97
2023-05-21T02:56:15.024Z,14.93
2023-05-21T02:58:42.786Z,10.07
2023-05-21T03:01:10.656Z,12.00
2023-05-21T03:03:38.437Z,13.88
2023-05-21T03:06:10.087Z,11.65
2023-05-21T03:08:37.764Z,12.50
2023-05-21T03:11:05.876Z,11.50
2023-05-21T03:13:33.484Z,12.52
2023-05-21T03:16:01.215Z,12.80
2023-05-21T03:18:29.052Z,13.10
2023-05-21T03:20:58.946Z,10.23
2023-05-21T03:23:28.058Z,10.40
2023-05-21T03:25:55.677Z,9.40
2023-05-21T03:28:23.332Z,12.23
2023-05-21T03:30:51.084Z,9.65
2023-05-21T03:33:18.752Z,11.43
2023-05-21T03:35:46.391Z,9.90
2023-05-21T03:38:14.096Z,10.50
2023-05-21T03:40:43.254Z,10.47
2023-05-21T03:43:10.852Z,11.17
2023-05-21T03:48:06.602Z,11.07
2023-05-21T03:50:34.323Z,14.98
2023-05-21T03:53:02.107Z,10.07
2023-05-21T03:55:29.885Z,10.00
2023-05-21T03:57:58.925Z,8.98
2023-05-21T04:00:26.578Z,11.73
2023-05-21T04:02:54.463Z,14.88
2023-05-21T04:05:22.292Z,9.50
2023-05-21T04:07:50.047Z,10.77
2023-05-21T04:10:17.797Z,16.00
2023-05-21T04:12:46.117Z,10.95
2023-05-21T04:15:18.785Z,10.80
2023-05-21T04:17:46.890Z,11.48
2023-05-21T04:20:16.862Z,11.23
2023-05-21T04:22:44.638Z,10.80
2023-05-21T04:25:12.286Z,11.70
2023-05-21T04:27:40.219Z,11.07
2023-05-21T04:30:08.640Z,11.57
2023-05-21T04:32:38.567Z,11.50
2023-05-21T04:35:07.088Z,10.93
2023-05-21T04:37:36.253Z,11.85
2023-05-21T04:40:04.385Z,10.18
2023-05-21T04:42:33.077Z,10.95
2023-05-21T04:45:00.781Z,8.80
2023-05-21T04:47:30.414Z,10.02
2023-05-21T04:49:59.545Z,10.07
2023-05-21T04:52:27.236Z,12.95
2023-05-21T04:54:55.032Z,10.90
2023-05-21T04:57:24.524Z,15.52
2023-05-21T04:59:52.800Z,11.68
2023-05-21T05:02:20.470Z,11.32
2023-05-21T05:04:48.113Z,11.48
2023-05-21T05:07:17.273Z,9.27
2023-05-21T05:09:44.945Z,9.50
2023-05-21T05:12:12.559Z,11.85
2023-05-21T05:14:40.174Z,10.48
2023-05-21T05:17:10.641Z,8.70
2023-05-21T05:19:38.373Z,9.95
2023-05-21T05:22:06.406Z,8.90
2023-05-21T05:24:35.469Z,9.20
2023-05-21T05:27:03.241Z,10.95
2023-05-21T05:29:30.856Z,11.05
2023-05-21T05:31:58.478Z,14.90
2023-05-21T05:34:26.110Z,11.88
2023-05-21T05:36:53.821Z,10.65
2023-05-21T05:39:27.254Z,9.20
2023-05-21T05:41:56.330Z,11.38
2023-05-21T05:44:23.984Z,11.18
2023-05-21T05:46:51.603Z,10.18
2023-05-21T05:49:19.216Z,9.40
2023-05-21T05:51:46.885Z,8.57
2023-05-21T05:54:14.541Z,9.07
2023-05-21T05:56:42.276Z,13.60
2023-05-21T05:59:11.564Z,11.90
2023-05-21T06:01:39.204Z,11.82
2023-05-21T06:04:06.839Z,12.93
2023-05-21T06:06:34.762Z,10.57
2023-05-21T06:09:02.494Z,11.00
2023-05-21T06:11:30.142Z,11.43
2023-05-21T06:14:00.870Z,9.63
2023-05-21T06:16:31.518Z,9.02
2023-05-21T06:22:24.830Z,8.75
2023-05-21T06:24:53.181Z,13.10
2023-05-21T06:27:20.910Z,9.88
2023-05-21T06:29:48.557Z,13.68
2023-05-21T06:32:17.762Z,8.60
2023-05-21T06:34:45.445Z,8.48
2023-05-21T06:37:13.084Z,10.35
2023-05-21T06:39:40.723Z,9.23
2023-05-21T06:42:08.428Z,10.50
2023-05-21T06:44:36.039Z,10.05
2023-05-21T06:47:03.688Z,9.43
2023-05-21T06:49:33.389Z,11.75
2023-05-21T06:52:01.518Z,11.40
2023-05-21T06:54:29.173Z,9.82
2023-05-21T06:56:59.415Z,9.30
2023-05-21T06:59:27.065Z,10.00
2023-05-21T07:01:54.797Z,8.98
2023-05-21T07:04:22.507Z,10.60
2023-05-21T07:06:52.396Z,9.23
2023-05-21T07:09:20.275Z,12.75
2023-05-21T07:11:47.938Z,7.70
2023-05-21T07:14:15.680Z,10.88
2023-05-21T07:16:43.417Z,10.77
2023-05-21T07:19:11.212Z,9.75
2023-05-21T07:21:38.928Z,7.17
2023-05-21T07:24:08.119Z,13.55
2023-05-21T07:26:35.855Z,9.27
2023-05-21T07:29:03.544Z,8.43
2023-05-21T07:31:31.231Z,12.02
2023-05-21T07:33:59.023Z,8.18
2023-05-21T07:36:27.241Z,10.75
2023-05-21T07:38:54.966Z,9.93
2023-05-21T07:41:24.080Z,8.70
2023-05-21T07:43:51.735Z,8.73
2023-05-21T07:46:19.472Z,7.43
2023-05-21T07:48:48.397Z,10.10
2023-05-21T07:51:16.524Z,9.48
2023-05-21T07:53:44.269Z,16.88
2023-05-21T07:56:11.976Z,7.55
2023-05-21T07:58:41.522Z,8.98
2023-05-21T08:01:09.245Z,9.68
2023-05-21T08:03:37.061Z,11.80
2023-05-21T08:06:04.997Z,8.55
2023-05-21T08:08:32.687Z,8.55
2023-05-21T08:11:00.447Z,11.35
2023-05-21T08:13:28.181Z,7.37
2023-05-21T08:15:57.275Z,9.95
2023-05-21T08:18:25.427Z,10.50
2023-05-21T08:20:53.172Z,11.77
2023-05-21T08:23:21.097Z,9.35
2023-05-21T08:25:48.810Z,13.23
2023-05-21T08:28:16.489Z,8.13
2023-05-21T08:30:44.196Z,9.73
2023-05-21T08:33:13.952Z,12.07
2023-05-21T08:35:41.633Z,10.33
2023-05-21T08:38:09.305Z,8.70
2023-05-21T08:40:37.011Z,11.88
2023-05-21T08:43:04.972Z,15.43
2023-05-21T08:45:38.061Z,13.93
2023-05-21T08:48:07.490Z,9.18
2023-05-21T08:50:36.631Z,14.32
2023-05-21T08:53:12.683Z,12.05
2023-05-21T08:55:54.074Z,16.15
2023-05-21T08:58:22.473Z,9.82
2023-05-21T09:00:50.719Z,9.02
2023-05-21T09:03:18.615Z,11.98
2023-05-21T09:05:48.613Z,16.23
2023-05-21T09:08:19.976Z,10.90
2023-05-21T09:13:59.444Z,9.80
2023-05-21T09:16:27.098Z,12.57
2023-05-21T09:18:54.793Z,12.48
2023-05-21T09:21:28.357Z,12.35
2023-05-21T09:23:57.962Z,12.02
2023-05-21T09:26:26.685Z,13.60
2023-05-21T09:28:58.864Z,15.38
2023-05-21T09:31:45.709Z,14.98
2023-05-21T09:34:14.252Z,13.85
2023-05-21T09:36:43.830Z,11.63
2023-05-21T09:39:16.316Z,13.90
2023-05-21T09:41:44.225Z,14.25
2023-05-21T09:44:31.531Z,12.63
2023-05-21T09:46:59.970Z,13.40
2023-05-21T09:49:28.401Z,11.63
2023-05-21T09:51:58.224Z,14.93
2023-05-21T09:54:26.521Z,14.90
2023-05-21T09:56:54.437Z,12.52
2023-05-21T09:59:22.423Z,13.95
2023-05-21T10:01:52.690Z,16.00
2023-05-21T10:04:21.090Z,13.18
2023-05-21T10:06:49.002Z,12.70
2023-05-21T10:09:20.048Z,12.88
2023-05-21T10:11:48.497Z,13.15
2023-05-21T10:14:18.252Z,13.90
2023-05-21T10:16:46.204Z,14.32
2023-05-21T10:19:14.476Z,15.82
2023-05-21T10:21:42.862Z,12.03
2023-05-21T10:24:11.204Z,12.90
2023-05-21T10:26:40.862Z,13.25
2023-05-21T10:29:09.206Z,16.15
2023-05-21T10:31:37.040Z,17.03
2023-05-21T10:34:06.037Z,13.35
2023-05-21T10:36:34.070Z,19.58
2023-05-21T10:39:03.628Z,17.38
2023-05-21T10:41:37.190Z,14.85
2023-05-21T10:44:12.498Z,14.45
2023-05-21T10:46:59.313Z,13.82
2023-05-21T10:49:43.134Z,18.47
2023-05-21T10:52:26.192Z,13.70
2023-05-21T10:55:03.215Z,13.18
2023-05-21T10:57:47.065Z,12.90
2023-05-21T11:00:17.370Z,13.38
2023-05-21T11:02:45.965Z,14.23
2023-05-21T11:05:13.746Z,11.63
2023-05-21T11:07:56.316Z,14.03
2023-05-21T11:10:38.302Z,15.50
2023-05-21T11:13:21.787Z,13.68
2023-05-21T11:16:16.444Z,16.42
2023-05-21T11:19:02.834Z,16.45
2023-05-21T11:21:31.950Z,15.13
2023-05-21T11:24:06.343Z,15.13
2023-05-21T11:27:07.009Z,18.10
2023-05-21T11:29:40.743Z,11.38
2023-05-21T11:32:11.154Z,12.95
2023-05-21T11:34:40.602Z,16.58
2023-05-21T11:37:25.132Z,15.05
2023-05-21T11:39:53.131Z,14.35
2023-05-21T11:42:29.785Z,15.73
2023-05-21T11:44:59.136Z,14.15
2023-05-21T11:47:28.941Z,13.57
2023-05-21T11:49:57.496Z,12.97
2023-05-21T11:52:25.327Z,11.87
2023-05-21T11:54:56.818Z,14.63
2023-05-21T11:57:30.505Z,16.08
2023-05-21T11:59:59.712Z,12.98
2023-05-21T12:02:32.566Z,14.75
2023-05-21T12:05:01.087Z,13.27
2023-05-21T12:07:30.113Z,13.27
2023-05-21T12:09:58.342Z,12.38
2023-05-21T12:12:35.352Z,14.03
2023-05-21T12:15:12.510Z,13.02
2023-05-21T12:17:42.168Z,10.87
2023-05-21T12:20:10.814Z,13.63
2023-05-21T12:22:42.633Z,11.55
2023-05-21T12:25:12.042Z,11.00
2023-05-21T12:27:39.932Z,13.48
2023-05-21T12:30:09.033Z,12.93
2023-05-21T12:32:38.186Z,11.82
2023-05-21T12:35:07.931Z,14.98
2023-05-21T12:37:35.888Z,13.73
2023-05-21T12:40:07.785Z,13.27
2023-05-21T12:42:35.864Z,12.77
2023-05-21T12:45:07.836Z,11.68
2023-05-21T12:47:49.086Z,10.55
2023-05-21T12:50:21.680Z,11.93
2023-05-21T12:52:49.387Z,16.63
2023-05-21T12:55:18.146Z,13.73
2023-05-21T12:57:46.574Z,11.40
2023-05-21T13:00:14.409Z,10.15
2023-05-21T13:02:43.064Z,16.27
2023-05-21T13:05:16.796Z,12.20
2023-05-21T13:07:47.663Z,15.10
2023-05-21T13:10:16.488Z,13.18
2023-05-21T13:12:44.880Z,11.95
2023-05-21T13:15:12.994Z,11.05
2023-05-21T13:17:40.710Z,13.45
2023-05-21T13:20:12.059Z,11.60
2023-05-21T13:22:42.445Z,12.70
2023-05-21T13:25:12.277Z,12.98
2023-05-21T13:27:39.985Z,14.07
2023-05-21T13:30:09.547Z,13.85
2023-05-21T13:32:37.396Z,11.68
2023-05-21T13:35:06.132Z,13.18
2023-05-21T13:37:36.126Z,12.98
2023-05-21T13:40:04.414Z,10.48
2023-05-21T13:42:33.545Z,11.57
2023-05-21T13:45:01.254Z,11.65
2023-05-21T13:47:28.988Z,12.32
2023-05-21T13:49:56.655Z,12.95
2023-05-21T13:52:24.278Z,12.15
2023-05-21T13:54:51.957Z,14.30
2023-05-21T13:57:19.806Z,18.73
2023-05-21T13:59:50.566Z,12.13
2023-05-21T14:02:18.538Z,12.98
2023-05-21T14:04:46.204Z,11.95
2023-05-21T14:07:13.913Z,10.30
2023-05-21T14:09:42.266Z,10.30
2023-05-21T14:12:10.839Z,11.15
2023-05-21T14:14:38.465Z,13.60
2023-05-21T14:17:07.616Z,10.73
2023-05-21T14:19:35.438Z,11.15
2023-05-21T14:22:03.154Z,10.80
2023-05-21T14:24:30.762Z,13.05
2023-05-21T14:26:58.344Z,12.90
2023-05-21T14:29:26.014Z,11.10
2023-05-21T14:31:53.750Z,11.40
2023-05-21T14:34:22.904Z,13.75
2023-05-21T14:36:50.650Z,12.13
2023-05-21T14:39:18.356Z,12.18
2023-05-21T14:41:45.981Z,11.63
2023-05-21T14:44:13.594Z,11.63
2023-05-21T14:46:41.198Z,13.05
2023-05-21T14:49:08.890Z,13.88
2023-05-21T14:51:37.933Z,14.60
2023-05-21T14:54:05.583Z,11.37
2023-05-21T14:56:33.222Z,11.30
2023-05-21T14:59:00.976Z,11.80
2023-05-21T15:01:28.723Z,12.38
2023-05-21T15:03:58.543Z,13.85
2023-05-21T15:06:26.494Z,10.95
2023-05-21T15:08:55.488Z,14.40
2023-05-21T15:11:23.244Z,10.40
2023-05-21T15:13:50.883Z,11.30
2023-05-21T15:16:19.739Z,12.70
2023-05-21T15:18:47.686Z,9.27
2023-05-21T15:21:15.324Z,12.13
2023-05-21T15:23:42.964Z,11.40
2023-05-21T15:26:12.075Z,12.07
2023-05-21T15:28:39.678Z,14.57
2023-05-21T15:31:07.375Z,10.38
2023-05-21T15:33:35.062Z,12.77
2023-05-21T15:36:02.734Z,11.43
2023-05-21T15:38:30.534Z,13.23
2023-05-21T15:40:58.186Z,9.93
2023-05-21T15:43:27.205Z,12.70
2023-05-21T15:45:54.834Z,14.10
2023-05-21T15:48:23.009Z,11.57
2023-05-21T15:50:50.861Z,11.07
2023-05-21T15:53:18.710Z,12.63
2023-05-21T15:55:46.315Z,12.43
2023-05-21T15:58:13.935Z,13.88
2023-05-21T16:00:42.991Z,14.00
2023-05-21T16:03:11.927Z,10.65
2023-05-21T16:05:39.717Z,10.43
2023-05-21T16:08:07.346Z,15.93
2023-05-21T16:10:35.070Z,13.05
2023-05-21T16:13:02.717Z,12.98
2023-05-21T16:15:32.372Z,10.27
2023-05-21T16:18:01.453Z,10.95
2023-05-21T16:20:30.686Z,11.90
2023-05-21T16:22:58.331Z,10.82
2023-05-21T16:25:26.038Z,11.65
2023-05-21T16:27:53.645Z,9.90
2023-05-21T16:30:21.394Z,11.05
2023-05-21T16:32:49.092Z,11.50
2023-05-21T16:35:18.153Z,9.88
2023-05-21T16:37:46.209Z,17.85
2023-05-21T16:40:14.210Z,11.20
2023-05-21T16:42:41.833Z,13.90
2023-05-21T16:45:10.898Z,11.77
2023-05-21T16:47:38.617Z,15.70
2023-05-21T16:50:07.676Z,11.17
2023-05-21T16:52:36.673Z,10.63
2023-05-21T16:55:04.536Z,12.48
2023-05-21T16:57:32.165Z,11.38
2023-05-21T16:59:59.776Z,13.40
2023-05-21T17:02:27.532Z,13.63
2023-05-21T17:04:55.308Z,13.82
2023-05-21T17:07:22.952Z,13.77
2023-05-21T17:09:51.979Z,13.35
2023-05-21T17:12:19.603Z,13.40
2023-05-21T17:14:47.203Z,16.58
2023-05-21T17:17:16.190Z,16.50
2023-05-21T17:19:44.715Z,15.70
2023-05-21T17:22:12.483Z,15.60
2023-05-21T17:24:40.100Z,14.73
2023-05-21T17:27:09.100Z,15.05
2023-05-21T17:29:36.818Z,16.25
2023-05-21T17:32:04.851Z,15.75
2023-05-21T17:34:32.495Z,16.05
2023-05-21T17:37:00.477Z,15.68
2023-05-21T17:39:28.083Z,14.70
2023-05-21T17:41:57.314Z,17.60
2023-05-21T17:44:26.400Z,13.50
2023-05-21T17:46:54.072Z,14.52
2023-05-21T17:49:21.863Z,13.50
2023-05-21T17:51:49.846Z,14.10
2023-05-21T17:54:17.535Z,15.48
2023-05-21T17:56:46.529Z,14.43
2023-05-21T17:59:15.945Z,14.88
2023-05-21T18:01:45.020Z,16.33
2023-05-21T18:04:13.308Z,15.68
2023-05-21T18:06:41.112Z,19.27
2023-05-21T18:09:10.530Z,15.60
2023-05-21T18:11:38.221Z,16.13
2023-05-21T18:14:05.837Z,13.60
2023-05-21T18:16:33.536Z,18.27
2023-05-21T18:19:05.743Z,17.13
2023-05-21T18:21:33.590Z,14.82
2023-05-21T18:24:01.232Z,16.10
2023-05-21T18:26:30.037Z,17.95
2023-05-21T18:28:57.982Z,15.63
2023-05-21T18:31:26.412Z,20.05
2023-05-21T18:33:54.082Z,17.60
2023-05-21T18:36:24.189Z,17.05
2023-05-21T18:38:52.402Z,19.45
2023-05-21T18:41:20.828Z,18.90
2023-05-21T18:43:48.633Z,19.70
2023-05-21T18:46:16.323Z,17.58
2023-05-21T18:48:44.069Z,19.05
2023-05-21T18:51:11.728Z,19.08
2023-05-21T18:53:40.942Z,22.63
2023-05-21T18:56:10.211Z,19.85
2023-05-21T18:58:38.841Z,18.40
2023-05-21T19:01:07.303Z,21.75
2023-05-21T19:03:34.918Z,20.02
2023-05-21T19:06:03.452Z,20.57
2023-05-21T19:08:31.050Z,16.98
2023-05-21T19:11:00.068Z,22.55
2023-05-21T19:13:27.803Z,23.77
2023-05-21T19:15:57.283Z,22.48
2023-05-21T19:18:30.240Z,20.80
2023-05-21T19:21:08.099Z,23.63
2023-05-21T19:23:48.419Z,24.02
2023-05-21T19:26:21.252Z,21.75
2023-05-21T19:28:52.943Z,25.55
2023-05-21T19:31:21.013Z,22.67
2023-05-21T19:33:48.876Z,22.73
2023-05-21T19:36:16.799Z,24.45
2023-05-21T19:38:48.120Z,22.30
2023-05-21T19:41:15.960Z,25.38
2023-05-21T19:43:46.169Z,22.40
2023-05-21T19:46:15.864Z,19.43
2023-05-21T19:48:45.858Z,18.92
2023-05-21T19:51:13.880Z,21.20
2023-05-21T19:53:41.624Z,20.98
2023-05-21T19:56:09.314Z,23.17
2023-05-21T19:58:37.020Z,21.92
2023-05-21T20:01:06.295Z,24.05
2023-05-21T20:03:35.932Z,22.77
2023-05-21T20:06:03.803Z,21.50
2023-05-21T20:08:31.631Z,24.85
2023-05-21T20:10:59.221Z,16.13
2023-05-21T20:13:26.822Z,22.00
2023-05-21T20:15:54.609Z,24.02
2023-05-21T20:18:25.012Z,16.15
2023-05-21T20:20:52.972Z,14.95
2023-05-21T20:23:20.579Z,18.52
2023-05-21T20:25:48.346Z,23.08
2023-05-21T20:28:15.962Z,21.02
2023-05-21T20:30:53.564Z,18.08
2023-05-21T20:33:21.443Z,20.27
2023-05-21T20:35:50.691Z,21.40
2023-05-21T20:38:18.336Z,22.63
2023-05-21T20:40:45.986Z,19.27
2023-05-21T20:43:13.745Z,16.98
2023-05-21T20:45:41.993Z,13.90
2023-05-21T20:48:12.117Z,15.18
2023-05-21T20:50:41.709Z,16.48
2023-05-21T20:53:11.975Z,11.02
2023-05-21T20:55:44.316Z,15.23
2023-05-21T20:58:12.269Z,11.13
2023-05-21T21:00:41.854Z,10.83
2023-05-21T21:03:10.583Z,11.32
2023-05-21T21:05:38.491Z,9.02
2023-05-21T21:08:08.236Z,8.70
2023-05-21T21:10:38.358Z,10.77
2023-05-21T21:13:07.185Z,6.47
2023-05-21T21:15:34.879Z,5.47
2023-05-21T21:18:02.586Z,5.03
2023-05-21T21:20:30.395Z,6.45
2023-05-21T21:22:57.995Z,7.07
2023-05-21T21:25:25.707Z,4.30
2023-05-21T21:27:54.732Z,5.47
2023-05-21T21:30:22.336Z,4.85
2023-05-21T21:32:50.540Z,6.97
2023-05-21T21:35:18.364Z,4.90
2023-05-21T21:37:46.163Z,6.03
2023-05-21T21:40:14.947Z,4.93
2023-05-21T21:42:43.340Z,4.32
2023-05-21T21:45:12.716Z,6.18
2023-05-21T21:47:40.480Z,7.22
2023-05-21T21:50:09.128Z,8.77
2023-05-21T21:52:40.090Z,12.48
2023-05-21T21:55:09.778Z,12.05
2023-05-21T21:57:37.644Z,9.93
2023-05-21T22:00:15.571Z,19.08
2023-05-21T22:02:46.499Z,9.30
2023-05-21T22:05:15.375Z,11.05
2023-05-21T22:07:46.463Z,9.98
2023-05-21T22:10:15.932Z,11.32
2023-05-21T22:12:44.463Z,12.77
2023-05-21T22:15:18.922Z,12.98
2023-05-21T22:17:49.970Z,13.00
2023-05-21T22:20:18.533Z,11.13
2023-05-21T22:22:46.372Z,13.65
2023-05-21T22:25:14.067Z,14.27
2023-05-21T22:27:42.319Z,14.73
2023-05-21T22:30:10.855Z,15.95
2023-05-21T22:32:38.811Z,14.93
2023-05-21T22:35:09.013Z,12.80
2023-05-21T22:37:37.306Z,17.55
2023-05-21T22:40:06.374Z,15.38
2023-05-21T22:42:34.676Z,17.90
2023-05-21T22:45:02.938Z,11.85
2023-05-21T22:47:32.132Z,23.02
2023-05-21T22:50:01.346Z,17.45
2023-05-21T22:52:30.381Z,14.85
2023-05-21T22:55:00.655Z,17.77
2023-05-21T22:57:28.419Z,16.00
2023-05-21T22:59:56.037Z,16.77
2023-05-21T23:02:23.739Z,13.68
2023-05-21T23:04:51.448Z,17.90
2023-05-21T23:07:19.162Z,16.10
2023-05-21T23:09:48.173Z,13.52
2023-05-21T23:12:16.043Z,15.05
2023-05-21T23:14:43.710Z,18.48
2023-05-21T23:17:11.340Z,14.43
2023-05-21T23:19:39.191Z,15.90
2023-05-21T23:22:06.850Z,17.35
2023-05-21T23:24:36.491Z,16.25
2023-05-21T23:27:05.785Z,17.58
2023-05-21T23:29:33.387Z,17.98
2023-05-21T23:32:01.869Z,15.18
2023-05-21T23:34:29.593Z,20.77
2023-05-21T23:36:59.451Z,17.08
2023-05-21T23:39:28.572Z,20.25
2023-05-21T23:41:56.366Z,18.23
2023-05-21T23:44:25.441Z,18.20
2023-05-21T23:46:53.126Z,15.10
2023-05-21T23:49:20.779Z,17.45
2023-05-21T23:51:50.577Z,19.10
2023-05-21T23:54:18.417Z,15.40
2023-05-21T23:56:46.335Z,17.60
2023-05-21T23:59:15.100Z,18.63
